Raleigh, North Dakota
Current Conditions -  °F | °C
As of 2:55 PM on Thursday 27 Nov 2014 (Local Time) from KY19 Reporting Station
Light Snow Light Snow  
Wind Chill: -7°   Ceiling: 300
Heat Index: 10°   Visibility: 1.2mi
Dew Point:   Wind: 16mph
Humidity: 85%   Direction: 140°SE
Pressure: 30.02"   Gusts: 24mph
Location:  46.36°N, 101.31°W
Report Text: KY19 272155Z AUTO 14014G21KT 1 1/4SM -SN BKN003 M12/M14 A3002 RMK AO2 P0010
Loading
Personal Weather Stations






























Interactive Weather Map New forecast layout! Learn more

10-Day Weather Forecast

Advertisements
Track Severe Weather on mobile